This is the latest recevied weather packets stored in our database for station/object VK2KGV-15. If no packets are shown the sender has not sent any weather packets the latest 10 day(s).
| Time | Temp. | Humidity | Pressure | Rain* | Wind** | Luminosity | Snow |
|---|---|---|---|---|---|---|---|
| 1788027542 | 5° C | 91% | 1027.5 hPa | 0 mm | - | - | - |
| 1788023923 | 6.11° C | 88% | 1027.3 hPa | 0 mm | - | - | - |
| 1788022717 | 6.67° C | 88% | 1027.4 hPa | 0 mm | - | - | - |
| 1788021511 | 6.67° C | 89% | 1027.5 hPa | 0 mm | - | - | - |
| 1788019702 | 7.78° C | 87% | 1027.7 hPa | 0 mm | - | - | - |
| 1788018495 | 8.33° C | 87% | 1027.7 hPa | 0 mm | - | - | - |
| 1788016686 | 8.33° C | 85% | 1027.9 hPa | 0 mm | - | - | - |
| 1788015480 | 8.89° C | 84% | 1027.8 hPa | 0 mm | - | - | - |
| 1788014273 | 9.44° C | 84% | 1027.8 hPa | 0 mm | - | - | - |
| 1788013067 | 9.44° C | 84% | 1027.8 hPa | 0 mm | - | - | - |
| 1788012464 | 9.44° C | 83% | 1027.7 hPa | 0 mm | - | - | - |
| 1788011861 | 9.44° C | 83% | 1027.6 hPa | 0 mm | - | - | - |
| 1788010655 | 10° C | 82% | 1027.3 hPa | 0 mm | - | - | - |
| 1788008846 | 8.89° C | 81% | 1027.3 hPa | 0 mm | - | - | - |
| 1788007640 | 8.33° C | 80% | 1027.2 hPa | 0 mm | - | - | - |
| 1788007036 | 8.89° C | 78% | 1027.1 hPa | 0 mm | - | - | - |
| 1788006433 | 9.44° C | 78% | 1027.1 hPa | 0 mm | - | - | - |
| 1788005830 | 9.44° C | 77% | 1027 hPa | 0 mm | - | - | - |
| 1788005227 | 10° C | 76% | 1027.1 hPa | 0 mm | - | - | - |
| 1788004624 | 10° C | 76% | 1027.1 hPa | 0 mm | - | - | - |
| 1788003418 | 7.78° C | 80% | 1027.1 hPa | 0 mm | - | - | - |
| 1788002211 | 7.78° C | 76% | 1027 hPa | 0 mm | - | - | - |
| 1788001005 | 8.33° C | 74% | 1027 hPa | 0 mm | - | - | - |
| 1787999799 | 8.33° C | 72% | 1026.9 hPa | 0 mm | - | - | - |
| 1787999196 | 8.89° C | 72% | 1026.9 hPa | 0 mm | - | - | - |
* Rain since midnight (hover to see other rain measurements)
** Current wind speed in m/s (hover to see current wind gust speed)